sensor_id;sensor_type;location;lat;lon;timestamp;P1;durP1;ratioP1;P2;durP2;ratioP2
17347;SDS011;8791;50.876;4.342;2023-05-07T00:00:53;6.82;;;3.00;;
17347;SDS011;8791;50.876;4.342;2023-05-07T00:03:21;9.25;;;3.50;;
17347;SDS011;8791;50.876;4.342;2023-05-07T00:05:48;12.57;;;3.60;;
17347;SDS011;8791;50.876;4.342;2023-05-07T00:08:16;7.30;;;3.30;;
17347;SDS011;8791;50.876;4.342;2023-05-07T00:10:43;8.20;;;3.42;;
17347;SDS011;8791;50.876;4.342;2023-05-07T00:13:11;5.80;;;3.35;;
17347;SDS011;8791;50.876;4.342;2023-05-07T00:15:38;11.52;;;3.45;;
17347;SDS011;8791;50.876;4.342;2023-05-07T00:18:05;7.63;;;3.13;;
17347;SDS011;8791;50.876;4.342;2023-05-07T00:20:32;6.88;;;3.00;;
17347;SDS011;8791;50.876;4.342;2023-05-07T00:22:59;11.57;;;3.38;;
17347;SDS011;8791;50.876;4.342;2023-05-07T00:25:27;12.30;;;3.60;;
17347;SDS011;8791;50.876;4.342;2023-05-07T00:27:54;9.20;;;3.60;;
17347;SDS011;8791;50.876;4.342;2023-05-07T00:30:21;8.18;;;4.40;;
17347;SDS011;8791;50.876;4.342;2023-05-07T00:32:48;10.32;;;4.45;;
17347;SDS011;8791;50.876;4.342;2023-05-07T00:35:15;8.30;;;4.25;;
17347;SDS011;8791;50.876;4.342;2023-05-07T00:37:42;10.80;;;4.28;;
17347;SDS011;8791;50.876;4.342;2023-05-07T00:40:09;8.98;;;3.85;;
17347;SDS011;8791;50.876;4.342;2023-05-07T00:42:38;7.57;;;3.95;;
17347;SDS011;8791;50.876;4.342;2023-05-07T00:45:05;5.93;;;3.58;;
17347;SDS011;8791;50.876;4.342;2023-05-07T00:47:33;10.02;;;3.85;;
17347;SDS011;8791;50.876;4.342;2023-05-07T00:50:00;9.82;;;4.00;;
17347;SDS011;8791;50.876;4.342;2023-05-07T00:52:27;10.00;;;4.60;;
17347;SDS011;8791;50.876;4.342;2023-05-07T00:54:55;7.28;;;3.42;;
17347;SDS011;8791;50.876;4.342;2023-05-07T00:57:22;8.70;;;3.83;;
17347;SDS011;8791;50.876;4.342;2023-05-07T00:59:52;10.43;;;3.97;;
17347;SDS011;8791;50.876;4.342;2023-05-07T01:02:19;8.80;;;4.45;;
17347;SDS011;8791;50.876;4.342;2023-05-07T01:04:46;10.45;;;4.43;;
17347;SDS011;8791;50.876;4.342;2023-05-07T01:07:12;8.77;;;4.10;;
17347;SDS011;8791;50.876;4.342;2023-05-07T01:09:39;8.60;;;4.30;;
17347;SDS011;8791;50.876;4.342;2023-05-07T01:12:07;11.30;;;3.85;;
17347;SDS011;8791;50.876;4.342;2023-05-07T01:14:34;7.32;;;4.15;;
17347;SDS011;8791;50.876;4.342;2023-05-07T01:17:03;9.38;;;4.43;;
17347;SDS011;8791;50.876;4.342;2023-05-07T01:19:30;8.60;;;4.55;;
17347;SDS011;8791;50.876;4.342;2023-05-07T01:22:00;13.15;;;4.43;;
17347;SDS011;8791;50.876;4.342;2023-05-07T01:24:31;10.00;;;4.25;;
17347;SDS011;8791;50.876;4.342;2023-05-07T01:26:58;9.02;;;3.88;;
17347;SDS011;8791;50.876;4.342;2023-05-07T01:29:26;6.82;;;3.75;;
17347;SDS011;8791;50.876;4.342;2023-05-07T01:31:53;12.82;;;3.63;;
17347;SDS011;8791;50.876;4.342;2023-05-07T01:34:22;11.50;;;4.28;;
17347;SDS011;8791;50.876;4.342;2023-05-07T01:36:52;9.43;;;2.97;;
17347;SDS011;8791;50.876;4.342;2023-05-07T01:39:23;8.52;;;3.50;;
17347;SDS011;8791;50.876;4.342;2023-05-07T01:41:52;9.98;;;3.15;;
17347;SDS011;8791;50.876;4.342;2023-05-07T01:44:20;11.05;;;3.00;;
17347;SDS011;8791;50.876;4.342;2023-05-07T01:46:48;8.02;;;3.10;;
17347;SDS011;8791;50.876;4.342;2023-05-07T01:49:16;8.90;;;3.40;;
17347;SDS011;8791;50.876;4.342;2023-05-07T01:51:43;10.68;;;2.83;;
17347;SDS011;8791;50.876;4.342;2023-05-07T01:54:10;8.85;;;3.17;;
17347;SDS011;8791;50.876;4.342;2023-05-07T01:56:37;11.40;;;3.05;;
17347;SDS011;8791;50.876;4.342;2023-05-07T01:59:05;7.68;;;3.08;;
17347;SDS011;8791;50.876;4.342;2023-05-07T02:01:32;4.05;;;2.80;;
17347;SDS011;8791;50.876;4.342;2023-05-07T02:03:59;8.52;;;2.70;;
17347;SDS011;8791;50.876;4.342;2023-05-07T02:06:26;10.63;;;3.22;;
17347;SDS011;8791;50.876;4.342;2023-05-07T02:08:53;11.55;;;3.40;;
17347;SDS011;8791;50.876;4.342;2023-05-07T02:11:20;14.48;;;3.45;;
17347;SDS011;8791;50.876;4.342;2023-05-07T02:13:47;9.15;;;4.20;;
17347;SDS011;8791;50.876;4.342;2023-05-07T02:16:15;19.15;;;4.00;;
17347;SDS011;8791;50.876;4.342;2023-05-07T02:18:42;10.60;;;3.53;;
17347;SDS011;8791;50.876;4.342;2023-05-07T02:21:09;9.48;;;4.05;;
17347;SDS011;8791;50.876;4.342;2023-05-07T02:23:36;10.50;;;3.33;;
17347;SDS011;8791;50.876;4.342;2023-05-07T02:26:03;5.53;;;3.05;;
17347;SDS011;8791;50.876;4.342;2023-05-07T02:28:30;11.98;;;3.50;;
17347;SDS011;8791;50.876;4.342;2023-05-07T02:30:58;11.68;;;3.75;;
17347;SDS011;8791;50.876;4.342;2023-05-07T02:33:27;10.98;;;3.70;;
17347;SDS011;8791;50.876;4.342;2023-05-07T02:35:54;14.20;;;3.80;;
17347;SDS011;8791;50.876;4.342;2023-05-07T02:38:21;13.25;;;3.80;;
17347;SDS011;8791;50.876;4.342;2023-05-07T02:40:48;11.45;;;4.18;;
17347;SDS011;8791;50.876;4.342;2023-05-07T02:43:15;9.30;;;3.88;;
17347;SDS011;8791;50.876;4.342;2023-05-07T02:45:42;7.53;;;3.60;;
17347;SDS011;8791;50.876;4.342;2023-05-07T02:48:09;10.27;;;3.50;;
17347;SDS011;8791;50.876;4.342;2023-05-07T02:50:37;5.32;;;3.97;;
17347;SDS011;8791;50.876;4.342;2023-05-07T02:53:04;11.60;;;3.75;;
17347;SDS011;8791;50.876;4.342;2023-05-07T02:55:31;10.27;;;3.58;;
17347;SDS011;8791;50.876;4.342;2023-05-07T02:57:58;11.05;;;4.13;;
17347;SDS011;8791;50.876;4.342;2023-05-07T03:00:25;9.65;;;4.68;;
17347;SDS011;8791;50.876;4.342;2023-05-07T03:02:52;8.82;;;3.92;;
17347;SDS011;8791;50.876;4.342;2023-05-07T03:05:19;7.13;;;4.18;;
17347;SDS011;8791;50.876;4.342;2023-05-07T03:07:47;11.90;;;4.70;;
17347;SDS011;8791;50.876;4.342;2023-05-07T03:10:14;9.52;;;3.72;;
17347;SDS011;8791;50.876;4.342;2023-05-07T03:12:41;7.30;;;3.88;;
17347;SDS011;8791;50.876;4.342;2023-05-07T03:15:08;12.73;;;4.55;;
17347;SDS011;8791;50.876;4.342;2023-05-07T03:17:36;8.32;;;3.58;;
17347;SDS011;8791;50.876;4.342;2023-05-07T03:20:03;7.03;;;3.78;;
17347;SDS011;8791;50.876;4.342;2023-05-07T03:22:32;11.15;;;4.03;;
17347;SDS011;8791;50.876;4.342;2023-05-07T03:25:00;11.52;;;3.88;;
17347;SDS011;8791;50.876;4.342;2023-05-07T03:27:27;9.10;;;3.42;;
17347;SDS011;8791;50.876;4.342;2023-05-07T03:29:54;16.98;;;3.90;;
17347;SDS011;8791;50.876;4.342;2023-05-07T03:32:21;12.07;;;3.90;;
17347;SDS011;8791;50.876;4.342;2023-05-07T03:34:47;9.48;;;3.70;;
17347;SDS011;8791;50.876;4.342;2023-05-07T03:37:14;11.35;;;3.95;;
17347;SDS011;8791;50.876;4.342;2023-05-07T03:39:41;12.60;;;3.60;;
17347;SDS011;8791;50.876;4.342;2023-05-07T03:42:09;8.82;;;3.85;;
17347;SDS011;8791;50.876;4.342;2023-05-07T03:44:36;12.85;;;3.55;;
17347;SDS011;8791;50.876;4.342;2023-05-07T03:47:03;11.60;;;3.67;;
17347;SDS011;8791;50.876;4.342;2023-05-07T03:49:32;11.35;;;3.33;;
17347;SDS011;8791;50.876;4.342;2023-05-07T03:52:03;10.73;;;4.20;;
17347;SDS011;8791;50.876;4.342;2023-05-07T03:54:30;11.75;;;3.80;;
17347;SDS011;8791;50.876;4.342;2023-05-07T03:56:57;6.50;;;3.60;;
17347;SDS011;8791;50.876;4.342;2023-05-07T03:59:25;7.40;;;3.70;;
17347;SDS011;8791;50.876;4.342;2023-05-07T04:01:52;13.13;;;4.43;;
17347;SDS011;8791;50.876;4.342;2023-05-07T04:04:21;10.10;;;3.97;;
17347;SDS011;8791;50.876;4.342;2023-05-07T04:06:48;7.05;;;3.55;;
17347;SDS011;8791;50.876;4.342;2023-05-07T04:09:15;10.98;;;3.63;;
17347;SDS011;8791;50.876;4.342;2023-05-07T04:11:42;6.03;;;3.22;;
17347;SDS011;8791;50.876;4.342;2023-05-07T04:14:09;10.32;;;3.35;;
17347;SDS011;8791;50.876;4.342;2023-05-07T04:16:37;11.80;;;3.58;;
17347;SDS011;8791;50.876;4.342;2023-05-07T04:19:04;7.22;;;3.75;;
17347;SDS011;8791;50.876;4.342;2023-05-07T04:21:31;8.75;;;3.85;;
17347;SDS011;8791;50.876;4.342;2023-05-07T04:23:58;10.98;;;4.10;;
17347;SDS011;8791;50.876;4.342;2023-05-07T04:26:25;9.98;;;4.45;;
17347;SDS011;8791;50.876;4.342;2023-05-07T04:28:56;10.55;;;4.00;;
17347;SDS011;8791;50.876;4.342;2023-05-07T04:31:24;6.15;;;4.28;;
17347;SDS011;8791;50.876;4.342;2023-05-07T04:33:55;11.52;;;3.92;;
17347;SDS011;8791;50.876;4.342;2023-05-07T04:36:22;17.23;;;4.05;;
17347;SDS011;8791;50.876;4.342;2023-05-07T04:38:52;9.25;;;4.63;;
17347;SDS011;8791;50.876;4.342;2023-05-07T04:41:19;9.25;;;3.90;;
17347;SDS011;8791;50.876;4.342;2023-05-07T04:43:46;10.93;;;4.22;;
17347;SDS011;8791;50.876;4.342;2023-05-07T04:46:13;10.07;;;4.32;;
17347;SDS011;8791;50.876;4.342;2023-05-07T04:48:40;9.13;;;3.67;;
17347;SDS011;8791;50.876;4.342;2023-05-07T04:51:09;7.72;;;3.85;;
17347;SDS011;8791;50.876;4.342;2023-05-07T04:53:38;6.40;;;3.60;;
17347;SDS011;8791;50.876;4.342;2023-05-07T04:56:06;9.90;;;3.53;;
17347;SDS011;8791;50.876;4.342;2023-05-07T04:58:33;5.82;;;3.78;;
17347;SDS011;8791;50.876;4.342;2023-05-07T05:01:00;8.00;;;4.25;;
17347;SDS011;8791;50.876;4.342;2023-05-07T05:03:27;11.02;;;4.47;;
17347;SDS011;8791;50.876;4.342;2023-05-07T05:05:55;9.25;;;3.80;;
17347;SDS011;8791;50.876;4.342;2023-05-07T05:08:25;13.55;;;4.38;;
17347;SDS011;8791;50.876;4.342;2023-05-07T05:10:52;13.27;;;4.28;;
17347;SDS011;8791;50.876;4.342;2023-05-07T05:13:19;10.35;;;4.18;;
17347;SDS011;8791;50.876;4.342;2023-05-07T05:15:46;8.20;;;4.22;;
17347;SDS011;8791;50.876;4.342;2023-05-07T05:18:13;12.30;;;3.80;;
17347;SDS011;8791;50.876;4.342;2023-05-07T05:20:40;9.70;;;4.03;;
17347;SDS011;8791;50.876;4.342;2023-05-07T05:23:07;9.30;;;4.63;;
17347;SDS011;8791;50.876;4.342;2023-05-07T05:25:35;11.07;;;4.10;;
17347;SDS011;8791;50.876;4.342;2023-05-07T05:28:04;7.60;;;4.53;;
17347;SDS011;8791;50.876;4.342;2023-05-07T05:30:31;13.73;;;4.57;;
17347;SDS011;8791;50.876;4.342;2023-05-07T05:32:58;8.40;;;4.30;;
17347;SDS011;8791;50.876;4.342;2023-05-07T05:35:25;8.27;;;4.35;;
17347;SDS011;8791;50.876;4.342;2023-05-07T05:37:51;11.18;;;3.95;;
17347;SDS011;8791;50.876;4.342;2023-05-07T05:40:18;7.75;;;3.83;;
17347;SDS011;8791;50.876;4.342;2023-05-07T05:42:47;10.85;;;4.15;;
17347;SDS011;8791;50.876;4.342;2023-05-07T05:45:13;9.80;;;3.85;;
17347;SDS011;8791;50.876;4.342;2023-05-07T05:47:40;8.95;;;3.88;;
17347;SDS011;8791;50.876;4.342;2023-05-07T05:50:07;9.52;;;3.85;;
17347;SDS011;8791;50.876;4.342;2023-05-07T05:52:35;6.38;;;3.85;;
17347;SDS011;8791;50.876;4.342;2023-05-07T05:55:02;8.85;;;4.25;;
17347;SDS011;8791;50.876;4.342;2023-05-07T05:57:29;17.95;;;4.95;;
17347;SDS011;8791;50.876;4.342;2023-05-07T05:59:58;11.40;;;5.25;;
17347;SDS011;8791;50.876;4.342;2023-05-07T06:02:25;17.42;;;4.97;;
17347;SDS011;8791;50.876;4.342;2023-05-07T06:04:52;9.88;;;4.10;;
17347;SDS011;8791;50.876;4.342;2023-05-07T06:07:19;8.30;;;3.50;;
17347;SDS011;8791;50.876;4.342;2023-05-07T06:09:46;14.60;;;3.65;;
17347;SDS011;8791;50.876;4.342;2023-05-07T06:12:13;8.82;;;3.80;;
17347;SDS011;8791;50.876;4.342;2023-05-07T06:14:39;18.08;;;4.43;;
17347;SDS011;8791;50.876;4.342;2023-05-07T06:17:10;11.18;;;3.80;;
17347;SDS011;8791;50.876;4.342;2023-05-07T06:19:36;9.95;;;4.05;;
17347;SDS011;8791;50.876;4.342;2023-05-07T06:22:03;9.75;;;4.28;;
17347;SDS011;8791;50.876;4.342;2023-05-07T06:24:31;12.52;;;3.67;;
17347;SDS011;8791;50.876;4.342;2023-05-07T06:26:57;16.75;;;3.67;;
17347;SDS011;8791;50.876;4.342;2023-05-07T06:29:25;8.52;;;3.75;;
17347;SDS011;8791;50.876;4.342;2023-05-07T06:31:52;10.02;;;3.88;;
17347;SDS011;8791;50.876;4.342;2023-05-07T06:34:20;12.80;;;4.32;;
17347;SDS011;8791;50.876;4.342;2023-05-07T06:36:47;11.82;;;3.88;;
17347;SDS011;8791;50.876;4.342;2023-05-07T06:39:14;13.30;;;4.30;;
17347;SDS011;8791;50.876;4.342;2023-05-07T06:41:41;12.00;;;4.20;;
17347;SDS011;8791;50.876;4.342;2023-05-07T06:44:08;10.35;;;4.07;;
17347;SDS011;8791;50.876;4.342;2023-05-07T06:46:35;14.50;;;4.32;;
17347;SDS011;8791;50.876;4.342;2023-05-07T06:49:02;9.57;;;4.25;;
17347;SDS011;8791;50.876;4.342;2023-05-07T06:51:31;15.27;;;8.18;;
17347;SDS011;8791;50.876;4.342;2023-05-07T06:53:58;11.00;;;4.68;;
17347;SDS011;8791;50.876;4.342;2023-05-07T06:56:25;12.18;;;4.38;;
17347;SDS011;8791;50.876;4.342;2023-05-07T06:58:52;12.32;;;4.75;;
17347;SDS011;8791;50.876;4.342;2023-05-07T07:01:19;29.80;;;13.43;;
17347;SDS011;8791;50.876;4.342;2023-05-07T07:03:46;16.20;;;5.28;;
17347;SDS011;8791;50.876;4.342;2023-05-07T07:06:13;13.52;;;4.90;;
17347;SDS011;8791;50.876;4.342;2023-05-07T07:08:41;11.15;;;5.25;;
17347;SDS011;8791;50.876;4.342;2023-05-07T07:11:08;9.82;;;4.20;;
17347;SDS011;8791;50.876;4.342;2023-05-07T07:13:36;11.85;;;5.03;;
17347;SDS011;8791;50.876;4.342;2023-05-07T07:16:03;12.98;;;4.70;;
17347;SDS011;8791;50.876;4.342;2023-05-07T07:18:30;9.25;;;4.63;;
17347;SDS011;8791;50.876;4.342;2023-05-07T07:20:57;7.82;;;4.32;;
17347;SDS011;8791;50.876;4.342;2023-05-07T07:23:24;8.07;;;3.80;;
17347;SDS011;8791;50.876;4.342;2023-05-07T07:25:52;9.95;;;4.45;;
17347;SDS011;8791;50.876;4.342;2023-05-07T07:28:21;8.13;;;3.55;;
17347;SDS011;8791;50.876;4.342;2023-05-07T07:30:48;8.82;;;3.90;;
17347;SDS011;8791;50.876;4.342;2023-05-07T07:33:15;6.95;;;3.75;;
17347;SDS011;8791;50.876;4.342;2023-05-07T07:35:42;5.28;;;3.40;;
17347;SDS011;8791;50.876;4.342;2023-05-07T07:38:09;4.90;;;3.65;;
17347;SDS011;8791;50.876;4.342;2023-05-07T07:40:36;13.75;;;3.92;;
17347;SDS011;8791;50.876;4.342;2023-05-07T07:43:04;8.70;;;4.28;;
17347;SDS011;8791;50.876;4.342;2023-05-07T07:45:31;13.95;;;4.32;;
17347;SDS011;8791;50.876;4.342;2023-05-07T07:47:58;11.20;;;3.83;;
17347;SDS011;8791;50.876;4.342;2023-05-07T07:50:25;9.68;;;4.20;;
17347;SDS011;8791;50.876;4.342;2023-05-07T07:52:53;8.30;;;4.47;;
17347;SDS011;8791;50.876;4.342;2023-05-07T07:55:20;10.10;;;3.85;;
17347;SDS011;8791;50.876;4.342;2023-05-07T07:57:49;6.88;;;3.80;;
17347;SDS011;8791;50.876;4.342;2023-05-07T08:00:17;8.43;;;4.00;;
17347;SDS011;8791;50.876;4.342;2023-05-07T08:02:45;5.68;;;2.95;;
17347;SDS011;8791;50.876;4.342;2023-05-07T08:05:12;7.25;;;3.63;;
17347;SDS011;8791;50.876;4.342;2023-05-07T08:07:40;7.53;;;3.17;;
17347;SDS011;8791;50.876;4.342;2023-05-07T08:10:07;6.15;;;3.17;;
17347;SDS011;8791;50.876;4.342;2023-05-07T08:12:34;5.40;;;3.42;;
17347;SDS011;8791;50.876;4.342;2023-05-07T08:15:01;7.30;;;3.55;;
17347;SDS011;8791;50.876;4.342;2023-05-07T08:17:30;6.35;;;3.20;;
17347;SDS011;8791;50.876;4.342;2023-05-07T08:19:57;7.20;;;3.22;;
17347;SDS011;8791;50.876;4.342;2023-05-07T08:22:24;7.28;;;3.97;;
17347;SDS011;8791;50.876;4.342;2023-05-07T08:24:51;6.00;;;3.25;;
17347;SDS011;8791;50.876;4.342;2023-05-07T08:27:18;5.60;;;3.17;;
17347;SDS011;8791;50.876;4.342;2023-05-07T08:29:45;5.65;;;3.25;;
17347;SDS011;8791;50.876;4.342;2023-05-07T08:32:13;6.18;;;3.88;;
17347;SDS011;8791;50.876;4.342;2023-05-07T08:34:41;7.63;;;3.97;;
17347;SDS011;8791;50.876;4.342;2023-05-07T08:37:08;4.82;;;3.03;;
17347;SDS011;8791;50.876;4.342;2023-05-07T08:39:35;5.70;;;2.95;;
17347;SDS011;8791;50.876;4.342;2023-05-07T08:42:02;4.97;;;2.92;;
17347;SDS011;8791;50.876;4.342;2023-05-07T08:44:32;6.65;;;4.07;;
17347;SDS011;8791;50.876;4.342;2023-05-07T08:47:00;4.60;;;3.13;;
17347;SDS011;8791;50.876;4.342;2023-05-07T08:49:28;4.82;;;3.35;;
17347;SDS011;8791;50.876;4.342;2023-05-07T08:51:56;8.82;;;4.30;;
17347;SDS011;8791;50.876;4.342;2023-05-07T08:54:23;6.93;;;3.97;;
17347;SDS011;8791;50.876;4.342;2023-05-07T08:56:52;8.10;;;4.10;;
17347;SDS011;8791;50.876;4.342;2023-05-07T08:59:19;9.93;;;4.60;;
17347;SDS011;8791;50.876;4.342;2023-05-07T09:01:46;9.05;;;6.05;;
17347;SDS011;8791;50.876;4.342;2023-05-07T09:04:13;7.47;;;4.50;;
17347;SDS011;8791;50.876;4.342;2023-05-07T09:06:40;8.32;;;4.00;;
17347;SDS011;8791;50.876;4.342;2023-05-07T09:09:09;7.70;;;4.22;;
17347;SDS011;8791;50.876;4.342;2023-05-07T09:11:40;8.35;;;4.10;;
17347;SDS011;8791;50.876;4.342;2023-05-07T09:14:07;9.45;;;4.40;;
17347;SDS011;8791;50.876;4.342;2023-05-07T09:16:34;7.55;;;4.80;;
17347;SDS011;8791;50.876;4.342;2023-05-07T09:19:02;8.93;;;4.40;;
17347;SDS011;8791;50.876;4.342;2023-05-07T09:21:29;9.55;;;5.18;;
17347;SDS011;8791;50.876;4.342;2023-05-07T09:23:56;8.95;;;5.35;;
17347;SDS011;8791;50.876;4.342;2023-05-07T09:26:25;6.55;;;4.95;;
17347;SDS011;8791;50.876;4.342;2023-05-07T09:28:53;10.18;;;5.07;;
17347;SDS011;8791;50.876;4.342;2023-05-07T09:31:20;13.52;;;5.65;;
17347;SDS011;8791;50.876;4.342;2023-05-07T09:33:48;10.27;;;5.60;;
17347;SDS011;8791;50.876;4.342;2023-05-07T09:36:15;8.68;;;6.60;;
17347;SDS011;8791;50.876;4.342;2023-05-07T09:38:42;10.38;;;6.10;;
17347;SDS011;8791;50.876;4.342;2023-05-07T09:41:10;7.97;;;5.97;;
17347;SDS011;8791;50.876;4.342;2023-05-07T09:43:40;12.70;;;5.93;;
17347;SDS011;8791;50.876;4.342;2023-05-07T09:46:08;7.57;;;5.63;;
17347;SDS011;8791;50.876;4.342;2023-05-07T09:48:38;13.60;;;5.47;;
17347;SDS011;8791;50.876;4.342;2023-05-07T09:51:08;10.52;;;4.68;;
17347;SDS011;8791;50.876;4.342;2023-05-07T09:53:44;7.80;;;5.13;;
17347;SDS011;8791;50.876;4.342;2023-05-07T09:56:13;8.85;;;5.10;;
17347;SDS011;8791;50.876;4.342;2023-05-07T09:58:42;10.48;;;5.85;;
17347;SDS011;8791;50.876;4.342;2023-05-07T10:01:11;5.13;;;4.55;;
17347;SDS011;8791;50.876;4.342;2023-05-07T10:03:39;8.50;;;4.53;;
17347;SDS011;8791;50.876;4.342;2023-05-07T10:06:08;6.40;;;4.88;;
17347;SDS011;8791;50.876;4.342;2023-05-07T10:08:36;8.60;;;4.82;;
17347;SDS011;8791;50.876;4.342;2023-05-07T10:11:03;7.10;;;5.30;;
17347;SDS011;8791;50.876;4.342;2023-05-07T10:13:32;7.07;;;5.65;;
17347;SDS011;8791;50.876;4.342;2023-05-07T10:16:02;6.32;;;5.60;;
17347;SDS011;8791;50.876;4.342;2023-05-07T10:18:30;9.27;;;5.82;;
17347;SDS011;8791;50.876;4.342;2023-05-07T10:20:59;12.27;;;6.13;;
17347;SDS011;8791;50.876;4.342;2023-05-07T10:23:33;14.73;;;6.35;;
17347;SDS011;8791;50.876;4.342;2023-05-07T10:26:00;9.13;;;5.78;;
17347;SDS011;8791;50.876;4.342;2023-05-07T10:28:30;9.20;;;6.13;;
17347;SDS011;8791;50.876;4.342;2023-05-07T10:31:10;8.10;;;5.60;;
17347;SDS011;8791;50.876;4.342;2023-05-07T10:33:49;7.38;;;5.57;;
17347;SDS011;8791;50.876;4.342;2023-05-07T10:36:18;7.53;;;4.97;;
17347;SDS011;8791;50.876;4.342;2023-05-07T10:38:46;5.60;;;4.60;;
17347;SDS011;8791;50.876;4.342;2023-05-07T10:41:14;6.18;;;5.55;;
17347;SDS011;8791;50.876;4.342;2023-05-07T10:43:42;5.90;;;4.47;;
17347;SDS011;8791;50.876;4.342;2023-05-07T10:46:15;10.77;;;4.95;;
17347;SDS011;8791;50.876;4.342;2023-05-07T10:51:36;6.32;;;4.63;;
17347;SDS011;8791;50.876;4.342;2023-05-07T10:54:19;6.60;;;5.20;;
17347;SDS011;8791;50.876;4.342;2023-05-07T10:56:47;7.35;;;5.65;;
17347;SDS011;8791;50.876;4.342;2023-05-07T11:02:09;9.20;;;5.30;;
17347;SDS011;8791;50.876;4.342;2023-05-07T11:04:36;6.53;;;4.80;;
17347;SDS011;8791;50.876;4.342;2023-05-07T11:10:04;5.72;;;3.90;;
17347;SDS011;8791;50.876;4.342;2023-05-07T11:12:47;5.18;;;4.32;;
17347;SDS011;8791;50.876;4.342;2023-05-07T11:15:36;5.00;;;4.47;;
17347;SDS011;8791;50.876;4.342;2023-05-07T11:18:09;14.13;;;4.88;;
17347;SDS011;8791;50.876;4.342;2023-05-07T11:20:47;7.15;;;5.07;;
17347;SDS011;8791;50.876;4.342;2023-05-07T11:26:26;13.35;;;8.93;;
17347;SDS011;8791;50.876;4.342;2023-05-07T11:28:55;8.70;;;4.25;;
17347;SDS011;8791;50.876;4.342;2023-05-07T11:31:25;5.38;;;4.22;;
17347;SDS011;8791;50.876;4.342;2023-05-07T11:33:55;5.72;;;4.70;;
17347;SDS011;8791;50.876;4.342;2023-05-07T11:36:22;6.45;;;4.90;;
17347;SDS011;8791;50.876;4.342;2023-05-07T11:38:51;7.65;;;5.00;;
17347;SDS011;8791;50.876;4.342;2023-05-07T11:41:18;4.88;;;3.88;;
17347;SDS011;8791;50.876;4.342;2023-05-07T11:43:58;5.75;;;4.60;;
17347;SDS011;8791;50.876;4.342;2023-05-07T11:46:26;6.38;;;4.30;;
17347;SDS011;8791;50.876;4.342;2023-05-07T11:48:55;6.28;;;4.15;;
17347;SDS011;8791;50.876;4.342;2023-05-07T11:51:23;4.78;;;2.78;;
17347;SDS011;8791;50.876;4.342;2023-05-07T11:53:52;4.55;;;2.40;;
17347;SDS011;8791;50.876;4.342;2023-05-07T11:56:19;3.05;;;2.47;;
17347;SDS011;8791;50.876;4.342;2023-05-07T11:58:47;5.15;;;2.40;;
17347;SDS011;8791;50.876;4.342;2023-05-07T12:01:14;4.57;;;2.50;;
17347;SDS011;8791;50.876;4.342;2023-05-07T12:03:43;3.53;;;1.80;;
17347;SDS011;8791;50.876;4.342;2023-05-07T12:06:13;3.08;;;2.03;;
17347;SDS011;8791;50.876;4.342;2023-05-07T12:08:41;2.08;;;1.85;;
17347;SDS011;8791;50.876;4.342;2023-05-07T12:11:09;5.65;;;2.67;;
17347;SDS011;8791;50.876;4.342;2023-05-07T12:13:47;2.85;;;2.00;;
17347;SDS011;8791;50.876;4.342;2023-05-07T12:16:14;5.07;;;2.40;;
17347;SDS011;8791;50.876;4.342;2023-05-07T12:18:41;2.97;;;2.20;;
17347;SDS011;8791;50.876;4.342;2023-05-07T12:21:09;2.75;;;2.55;;
17347;SDS011;8791;50.876;4.342;2023-05-07T12:23:37;4.65;;;3.05;;
17347;SDS011;8791;50.876;4.342;2023-05-07T12:26:05;3.38;;;2.75;;
17347;SDS011;8791;50.876;4.342;2023-05-07T12:28:37;3.28;;;2.60;;
17347;SDS011;8791;50.876;4.342;2023-05-07T12:31:08;3.53;;;2.72;;
17347;SDS011;8791;50.876;4.342;2023-05-07T12:33:35;8.15;;;2.80;;
17347;SDS011;8791;50.876;4.342;2023-05-07T12:36:03;3.10;;;2.78;;
17347;SDS011;8791;50.876;4.342;2023-05-07T12:38:36;3.40;;;2.58;;
17347;SDS011;8791;50.876;4.342;2023-05-07T12:41:06;4.63;;;3.20;;
17347;SDS011;8791;50.876;4.342;2023-05-07T12:43:33;6.38;;;3.58;;
17347;SDS011;8791;50.876;4.342;2023-05-07T12:46:01;3.50;;;3.15;;
17347;SDS011;8791;50.876;4.342;2023-05-07T12:48:30;5.00;;;3.22;;
17347;SDS011;8791;50.876;4.342;2023-05-07T12:50:58;3.08;;;2.88;;
17347;SDS011;8791;50.876;4.342;2023-05-07T12:53:27;4.72;;;3.45;;
17347;SDS011;8791;50.876;4.342;2023-05-07T12:55:58;6.13;;;4.57;;
17347;SDS011;8791;50.876;4.342;2023-05-07T12:58:26;4.13;;;3.72;;
17347;SDS011;8791;50.876;4.342;2023-05-07T13:01:00;7.85;;;3.22;;
17347;SDS011;8791;50.876;4.342;2023-05-07T13:03:30;4.70;;;4.30;;
17347;SDS011;8791;50.876;4.342;2023-05-07T13:05:59;5.78;;;4.82;;
17347;SDS011;8791;50.876;4.342;2023-05-07T13:08:27;5.43;;;4.20;;
17347;SDS011;8791;50.876;4.342;2023-05-07T13:10:58;5.13;;;3.83;;
17347;SDS011;8791;50.876;4.342;2023-05-07T13:13:28;3.80;;;3.50;;
17347;SDS011;8791;50.876;4.342;2023-05-07T13:15:56;4.82;;;4.25;;
17347;SDS011;8791;50.876;4.342;2023-05-07T13:18:24;5.25;;;4.20;;
17347;SDS011;8791;50.876;4.342;2023-05-07T13:20:51;6.60;;;5.93;;
17347;SDS011;8791;50.876;4.342;2023-05-07T13:23:18;6.78;;;5.20;;
17347;SDS011;8791;50.876;4.342;2023-05-07T13:25:45;8.40;;;6.13;;
17347;SDS011;8791;50.876;4.342;2023-05-07T13:28:13;8.35;;;5.95;;
17347;SDS011;8791;50.876;4.342;2023-05-07T13:30:40;7.53;;;6.85;;
17347;SDS011;8791;50.876;4.342;2023-05-07T13:33:07;7.85;;;7.05;;
17347;SDS011;8791;50.876;4.342;2023-05-07T13:35:34;7.22;;;6.55;;
17347;SDS011;8791;50.876;4.342;2023-05-07T13:38:01;8.10;;;7.30;;
17347;SDS011;8791;50.876;4.342;2023-05-07T13:40:28;7.53;;;6.82;;
17347;SDS011;8791;50.876;4.342;2023-05-07T13:42:56;8.98;;;7.75;;
17347;SDS011;8791;50.876;4.342;2023-05-07T13:45:26;9.02;;;8.13;;
17347;SDS011;8791;50.876;4.342;2023-05-07T13:47:54;8.15;;;7.40;;
17347;SDS011;8791;50.876;4.342;2023-05-07T13:50:21;8.93;;;8.13;;
17347;SDS011;8791;50.876;4.342;2023-05-07T13:52:48;8.57;;;7.88;;
17347;SDS011;8791;50.876;4.342;2023-05-07T13:55:16;8.85;;;8.05;;
17347;SDS011;8791;50.876;4.342;2023-05-07T13:57:43;7.93;;;7.22;;
17347;SDS011;8791;50.876;4.342;2023-05-07T14:00:11;9.20;;;8.40;;
17347;SDS011;8791;50.876;4.342;2023-05-07T14:02:40;8.82;;;8.02;;
17347;SDS011;8791;50.876;4.342;2023-05-07T14:05:07;8.82;;;7.78;;
17347;SDS011;8791;50.876;4.342;2023-05-07T14:07:35;8.45;;;7.65;;
17347;SDS011;8791;50.876;4.342;2023-05-07T14:10:02;8.93;;;8.00;;
17347;SDS011;8791;50.876;4.342;2023-05-07T14:12:29;10.63;;;7.30;;
17347;SDS011;8791;50.876;4.342;2023-05-07T14:14:57;8.00;;;7.32;;
17347;SDS011;8791;50.876;4.342;2023-05-07T14:17:24;8.43;;;7.72;;
17347;SDS011;8791;50.876;4.342;2023-05-07T14:19:53;8.43;;;7.50;;
17347;SDS011;8791;50.876;4.342;2023-05-07T14:22:20;9.43;;;8.50;;
17347;SDS011;8791;50.876;4.342;2023-05-07T14:24:48;9.15;;;8.20;;
17347;SDS011;8791;50.876;4.342;2023-05-07T14:27:16;9.82;;;8.15;;
17347;SDS011;8791;50.876;4.342;2023-05-07T14:29:43;11.00;;;7.85;;
17347;SDS011;8791;50.876;4.342;2023-05-07T14:32:10;9.07;;;8.18;;
17347;SDS011;8791;50.876;4.342;2023-05-07T14:34:37;9.25;;;8.15;;
17347;SDS011;8791;50.876;4.342;2023-05-07T14:37:06;8.63;;;7.82;;
17347;SDS011;8791;50.876;4.342;2023-05-07T14:39:32;9.65;;;8.25;;
17347;SDS011;8791;50.876;4.342;2023-05-07T14:41:59;8.90;;;8.10;;
17347;SDS011;8791;50.876;4.342;2023-05-07T14:44:26;9.55;;;8.73;;
17347;SDS011;8791;50.876;4.342;2023-05-07T14:46:53;9.15;;;7.85;;
17347;SDS011;8791;50.876;4.342;2023-05-07T14:49:20;8.23;;;7.53;;
17347;SDS011;8791;50.876;4.342;2023-05-07T14:51:47;8.98;;;7.70;;
17347;SDS011;8791;50.876;4.342;2023-05-07T14:54:15;11.00;;;7.80;;
17347;SDS011;8791;50.876;4.342;2023-05-07T14:56:42;8.50;;;7.72;;
17347;SDS011;8791;50.876;4.342;2023-05-07T14:59:09;10.13;;;9.10;;
17347;SDS011;8791;50.876;4.342;2023-05-07T15:01:36;9.25;;;8.35;;
17347;SDS011;8791;50.876;4.342;2023-05-07T15:04:05;9.02;;;8.20;;
17347;SDS011;8791;50.876;4.342;2023-05-07T15:06:32;9.82;;;8.98;;
17347;SDS011;8791;50.876;4.342;2023-05-07T15:08:59;16.83;;;11.98;;
17347;SDS011;8791;50.876;4.342;2023-05-07T15:11:27;11.00;;;9.88;;
17347;SDS011;8791;50.876;4.342;2023-05-07T15:13:54;18.48;;;11.68;;